Time;durP1;ratioP1;P1;durP2;ratioP2;P2;SDS_P1;SDS_P2;PMS_P1;PMS_P2;Temp;Humidity;BMP_temperature;BMP_pressure;BME280_temperature;BME280_humidity;BME280_pressure;Samples;Min_cycle;Max_cycle;Signal;HPM_P1;HPM_P2
2022/09/11 00:00:04;;;;;;;;;;;17.30;99.90;;;;;;5078859;28;20372;-82
2022/09/11 00:02:30;;;;;;;;;;;17.30;99.90;;;;;;5078493;28;19919;-82
2022/09/11 00:04:55;;;;;;;;;;;17.30;99.90;;;;;;5077391;28;19909;-81
2022/09/11 00:07:21;;;;;;;;;;;17.20;99.90;;;;;;5077873;28;19956;-82
2022/09/11 00:09:46;;;;;;;;;;;17.20;99.90;;;;;;5078538;28;19908;-82
2022/09/11 00:12:12;;;;;;;;;;;17.20;99.90;;;;;;5077223;28;19936;-81
2022/09/11 00:14:38;;;;;;;;;;;17.20;99.90;;;;;;5077551;28;20060;-81
2022/09/11 00:17:03;;;;;;;;;;;17.20;99.90;;;;;;5077947;28;19908;-81
2022/09/11 00:19:29;;;;;;;;;;;17.20;99.90;;;;;;5077428;28;19912;-81
2022/09/11 00:21:56;;;;;;;;;;;17.20;99.90;;;;;;5077384;28;20372;-82
2022/09/11 00:24:21;;;;;;;;;;;17.10;99.90;;;;;;5076307;28;19909;-81
2022/09/11 00:26:47;;;;;;;;;;;17.20;99.90;;;;;;5076639;28;20009;-82
2022/09/11 00:29:12;;;;;;;;;;;17.20;99.90;;;;;;5076424;28;19991;-82
2022/09/11 00:31:38;;;;;;;;;;;17.20;99.90;;;;;;5076463;28;19912;-81
2022/09/11 00:34:05;;;;;;;;;;;17.20;99.90;;;;;;5076501;28;19908;-81
2022/09/11 00:36:31;;;;;;;;;;;17.20;99.90;;;;;;5075731;28;19909;-82
2022/09/11 00:38:57;;;;;;;;;;;17.20;99.90;;;;;;5076504;28;19980;-81
2022/09/11 00:41:24;;;;;;;;;;;17.10;99.90;;;;;;5076216;28;19916;-81
2022/09/11 00:43:54;;;;;;;;;;;17.10;99.90;;;;;;5076812;28;20498;-81
2022/09/11 00:46:20;;;;;;;;;;;17.10;99.90;;;;;;5075692;28;20328;-81
2022/09/11 00:48:48;;;;;;;;;;;17.10;99.90;;;;;;5075498;28;20299;-81
2022/09/11 00:51:18;;;;;;;;;;;17.10;99.90;;;;;;5076247;28;19917;-82
2022/09/11 00:53:45;;;;;;;;;;;17.10;99.90;;;;;;5075988;28;19939;-81
2022/09/11 00:56:11;;;;;;;;;;;17.10;99.90;;;;;;5075350;28;20291;-82
2022/09/11 00:58:38;;;;;;;;;;;17.00;99.90;;;;;;5075148;28;19908;-81
2022/09/11 01:01:03;;;;;;;;;;;17.00;99.90;;;;;;5075250;28;19916;-81
2022/09/11 01:03:30;;;;;;;;;;;16.90;99.90;;;;;;5073932;28;20275;-81
2022/09/11 01:05:57;;;;;;;;;;;16.90;99.90;;;;;;5074769;28;19976;-81
2022/09/11 01:08:23;;;;;;;;;;;16.90;99.90;;;;;;5074347;28;19909;-82
2022/09/11 01:11:03;;;;;;;;;;;16.90;99.90;;;;;;5074349;28;20085;-81
2022/09/11 01:13:49;;;;;;;;;;;16.90;99.90;;;;;;5074671;28;19909;-82
2022/09/11 01:16:30;;;;;;;;;;;16.90;99.90;;;;;;5073763;28;19920;-81
2022/09/11 01:19:05;;;;;;;;;;;16.80;99.90;;;;;;5073795;28;19912;-81
2022/09/11 01:21:37;;;;;;;;;;;16.80;99.90;;;;;;5073640;28;19908;-81
2022/09/11 01:24:02;;;;;;;;;;;16.80;99.90;;;;;;5073787;28;19916;-81
2022/09/11 01:26:52;;;;;;;;;;;16.90;99.90;;;;;;5073795;28;19909;-81
2022/09/11 01:29:25;;;;;;;;;;;16.90;99.90;;;;;;5073891;28;20378;-81
2022/09/11 01:31:55;;;;;;;;;;;16.90;99.90;;;;;;5073364;28;19912;-81
2022/09/11 01:34:25;;;;;;;;;;;16.90;99.90;;;;;;5073524;28;19909;-81
2022/09/11 01:36:53;;;;;;;;;;;16.90;99.90;;;;;;5073181;28;19925;-81
2022/09/11 01:39:21;;;;;;;;;;;16.90;99.90;;;;;;5073341;28;20346;-81
2022/09/11 01:41:53;;;;;;;;;;;16.90;99.90;;;;;;5073718;28;19956;-81
2022/09/11 01:44:30;;;;;;;;;;;16.90;99.90;;;;;;5073107;28;19912;-81
2022/09/11 01:46:57;;;;;;;;;;;16.80;99.90;;;;;;5072829;28;19953;-81
2022/09/11 01:49:39;;;;;;;;;;;16.80;99.90;;;;;;5072527;28;19930;-82
2022/09/11 01:52:11;;;;;;;;;;;16.80;99.90;;;;;;5072666;28;19922;-80
2022/09/11 01:54:45;;;;;;;;;;;16.80;99.90;;;;;;5072880;28;20338;-81
2022/09/11 01:57:17;;;;;;;;;;;16.80;99.90;;;;;;5072298;28;19948;-81
2022/09/11 01:59:48;;;;;;;;;;;16.90;99.90;;;;;;5072532;28;19912;-81
2022/09/11 02:02:18;;;;;;;;;;;16.90;99.90;;;;;;5072749;28;20398;-81
2022/09/11 02:04:46;;;;;;;;;;;17.00;99.90;;;;;;5072333;28;19931;-81
2022/09/11 02:07:15;;;;;;;;;;;17.10;99.90;;;;;;5073474;28;19908;-82
2022/09/11 02:09:43;;;;;;;;;;;17.20;99.90;;;;;;5072550;28;19971;-82
2022/09/11 02:12:12;;;;;;;;;;;17.30;99.90;;;;;;5072275;28;19913;-82
2022/09/11 02:14:39;;;;;;;;;;;17.30;99.90;;;;;;5071787;28;19909;-81
2022/09/11 02:17:08;;;;;;;;;;;17.30;99.90;;;;;;5071915;28;19912;-82
2022/09/11 02:19:33;;;;;;;;;;;17.30;99.90;;;;;;5072402;28;20360;-81
2022/09/11 02:21:59;;;;;;;;;;;17.40;99.90;;;;;;5072119;28;19916;-81
2022/09/11 02:24:26;;;;;;;;;;;17.40;99.90;;;;;;5072277;28;19919;-81
2022/09/11 02:27:01;;;;;;;;;;;17.40;99.90;;;;;;5071685;28;19926;-81
2022/09/11 02:29:30;;;;;;;;;;;17.40;99.90;;;;;;5071508;28;20371;-81
2022/09/11 02:31:56;;;;;;;;;;;17.50;99.90;;;;;;5071510;28;19999;-81
2022/09/11 02:34:28;;;;;;;;;;;17.40;99.90;;;;;;5071583;28;20008;-81
2022/09/11 02:36:57;;;;;;;;;;;17.40;99.90;;;;;;5071498;28;19912;-81
2022/09/11 02:39:22;;;;;;;;;;;17.30;99.90;;;;;;5088532;22;19985;-83
2022/09/11 02:41:51;;;;;;;;;;;17.30;99.90;;;;;;5091016;28;19916;-83
2022/09/11 02:44:32;;;;;;;;;;;17.30;99.90;;;;;;5091107;28;19908;-83
2022/09/11 02:47:04;;;;;;;;;;;17.30;99.90;;;;;;5091760;28;19974;-83
2022/09/11 02:49:57;;;;;;;;;;;17.30;99.90;;;;;;5086023;28;19939;-83
2022/09/11 02:52:43;;;;;;;;;;;17.30;99.90;;;;;;5072135;28;20295;-83
2022/09/11 02:55:09;;;;;;;;;;;17.40;99.90;;;;;;5070273;28;19958;-83
2022/09/11 02:57:46;;;;;;;;;;;17.50;99.90;;;;;;5070275;28;19912;-83
2022/09/11 03:00:12;;;;;;;;;;;17.50;99.90;;;;;;5070737;28;19909;-83
2022/09/11 03:02:39;;;;;;;;;;;17.50;99.90;;;;;;5072008;28;19915;-83
2022/09/11 03:05:05;;;;;;;;;;;17.60;99.90;;;;;;5071878;28;19915;-85
2022/09/11 03:07:32;;;;;;;;;;;17.50;99.90;;;;;;5075489;28;20356;-84
2022/09/11 03:09:58;;;;;;;;;;;17.50;99.90;;;;;;5075717;28;19909;-85
2022/09/11 03:12:23;;;;;;;;;;;17.60;99.90;;;;;;5076416;28;19913;-84
2022/09/11 03:14:49;;;;;;;;;;;17.60;99.90;;;;;;5075546;28;19969;-85
2022/09/11 03:17:15;;;;;;;;;;;17.60;99.90;;;;;;5074151;28;19920;-85
2022/09/11 03:19:41;;;;;;;;;;;17.60;99.90;;;;;;5074606;28;19908;-85
2022/09/11 03:22:06;;;;;;;;;;;17.70;99.90;;;;;;5075753;28;19909;-85
2022/09/11 03:24:32;;;;;;;;;;;17.70;99.90;;;;;;5073631;28;19941;-85
2022/09/11 03:26:57;;;;;;;;;;;17.70;99.90;;;;;;5073233;28;19908;-84
2022/09/11 03:29:23;;;;;;;;;;;17.80;99.90;;;;;;5073988;28;20026;-85
2022/09/11 03:31:49;;;;;;;;;;;17.70;99.90;;;;;;5076394;28;19913;-84
2022/09/11 03:34:16;;;;;;;;;;;17.70;99.90;;;;;;5077483;28;20291;-85
2022/09/11 03:36:42;;;;;;;;;;;17.70;99.90;;;;;;5078305;28;19908;-84
2022/09/11 03:39:08;;;;;;;;;;;17.60;99.90;;;;;;5078955;28;19966;-86
2022/09/11 03:41:34;;;;;;;;;;;17.60;99.90;;;;;;5077780;28;19913;-84
2022/09/11 03:43:59;;;;;;;;;;;17.60;99.90;;;;;;5079546;28;20482;-84
2022/09/11 03:46:25;;;;;;;;;;;17.60;99.90;;;;;;5076023;28;20382;-84
2022/09/11 03:48:51;;;;;;;;;;;17.60;99.90;;;;;;5073866;28;20413;-84
2022/09/11 03:51:16;;;;;;;;;;;17.60;99.90;;;;;;5073829;28;19966;-84
2022/09/11 03:53:42;;;;;;;;;;;17.60;99.90;;;;;;5073802;28;19909;-84
2022/09/11 03:56:08;;;;;;;;;;;17.70;99.90;;;;;;5073013;28;19908;-83
2022/09/11 03:58:34;;;;;;;;;;;17.60;99.90;;;;;;5074944;28;19932;-84
2022/09/11 04:00:59;;;;;;;;;;;17.60;99.90;;;;;;5073580;28;19909;-84
2022/09/11 04:03:25;;;;;;;;;;;17.60;99.90;;;;;;5074787;28;20257;-83
2022/09/11 04:06:00;;;;;;;;;;;17.60;99.90;;;;;;5072902;28;19912;-84
2022/09/11 04:08:26;;;;;;;;;;;17.60;99.90;;;;;;5073457;28;20331;-83
2022/09/11 04:10:59;;;;;;;;;;;17.50;99.90;;;;;;5073135;28;19963;-83
2022/09/11 04:13:28;;;;;;;;;;;17.60;99.90;;;;;;5073429;28;19913;-84
2022/09/11 04:15:57;;;;;;;;;;;17.60;99.90;;;;;;5072742;28;19912;-83
2022/09/11 04:18:22;;;;;;;;;;;17.60;99.90;;;;;;5074665;28;19896;-85
2022/09/11 04:20:48;;;;;;;;;;;17.50;99.90;;;;;;5076213;28;19919;-84
2022/09/11 04:23:13;;;;;;;;;;;17.50;99.90;;;;;;5076338;28;20351;-83
2022/09/11 04:25:39;;;;;;;;;;;17.60;99.90;;;;;;5076926;28;19913;-84
2022/09/11 04:28:04;;;;;;;;;;;17.60;99.90;;;;;;5077451;28;20007;-84
2022/09/11 04:30:29;;;;;;;;;;;17.60;99.90;;;;;;5075698;28;19931;-84
2022/09/11 04:32:55;;;;;;;;;;;17.60;99.90;;;;;;5075281;28;19915;-84
2022/09/11 04:35:20;;;;;;;;;;;17.50;99.90;;;;;;5077006;28;19908;-85
2022/09/11 04:37:46;;;;;;;;;;;17.50;99.90;;;;;;5074807;28;19912;-85
2022/09/11 04:40:11;;;;;;;;;;;17.50;99.90;;;;;;5075113;28;20280;-84
2022/09/11 04:42:37;;;;;;;;;;;17.40;99.90;;;;;;5074420;28;19912;-85
2022/09/11 04:45:03;;;;;;;;;;;17.40;99.90;;;;;;5074556;28;19908;-84
2022/09/11 04:47:28;;;;;;;;;;;17.50;99.90;;;;;;5074595;28;19963;-84
2022/09/11 04:49:54;;;;;;;;;;;17.50;99.90;;;;;;5074349;28;19912;-84
2022/09/11 04:52:19;;;;;;;;;;;17.50;99.90;;;;;;5074805;28;19919;-84
2022/09/11 04:54:45;;;;;;;;;;;17.50;99.90;;;;;;5074349;28;20390;-84
2022/09/11 04:57:10;;;;;;;;;;;17.50;99.90;;;;;;5074224;28;19909;-84
2022/09/11 04:59:36;;;;;;;;;;;17.50;99.90;;;;;;5074394;28;20380;-84
2022/09/11 05:02:02;;;;;;;;;;;17.50;99.90;;;;;;5074317;28;19909;-84
2022/09/11 05:04:27;;;;;;;;;;;17.40;99.90;;;;;;5073889;28;19909;-85
2022/09/11 05:06:53;;;;;;;;;;;17.40;99.90;;;;;;5073368;28;20294;-84
2022/09/11 05:09:18;;;;;;;;;;;17.40;99.90;;;;;;5075136;28;19916;-83
2022/09/11 05:11:44;;;;;;;;;;;17.40;99.90;;;;;;5073932;28;20337;-84
2022/09/11 05:14:10;;;;;;;;;;;17.40;99.90;;;;;;5074190;28;19915;-84
2022/09/11 05:16:36;;;;;;;;;;;17.40;99.90;;;;;;5073218;28;20342;-84
2022/09/11 05:19:03;;;;;;;;;;;17.40;99.90;;;;;;5074868;28;19908;-84
2022/09/11 05:21:29;;;;;;;;;;;17.40;99.90;;;;;;5073994;28;20387;-83
2022/09/11 05:23:56;;;;;;;;;;;17.50;99.90;;;;;;5075268;28;19998;-85
2022/09/11 05:26:23;;;;;;;;;;;17.40;99.90;;;;;;5072797;28;19909;-84
2022/09/11 05:28:56;;;;;;;;;;;17.50;99.90;;;;;;5073526;28;19961;-84
2022/09/11 05:31:21;;;;;;;;;;;17.50;99.90;;;;;;5073243;28;20368;-85
2022/09/11 05:33:46;;;;;;;;;;;17.50;99.90;;;;;;5074709;28;19909;-84
2022/09/11 05:36:13;;;;;;;;;;;17.40;99.90;;;;;;5072127;28;19909;-84
2022/09/11 05:38:38;;;;;;;;;;;17.40;99.90;;;;;;5073239;28;19908;-84
2022/09/11 05:41:05;;;;;;;;;;;17.40;99.90;;;;;;5073143;28;20381;-84
2022/09/11 05:43:31;;;;;;;;;;;17.40;99.90;;;;;;5073037;28;19916;-83
2022/09/11 05:45:57;;;;;;;;;;;17.40;99.90;;;;;;5072028;28;19991;-84
2022/09/11 05:48:23;;;;;;;;;;;17.40;99.90;;;;;;5072720;28;19947;-84
2022/09/11 05:50:53;;;;;;;;;;;17.40;99.90;;;;;;5072611;28;19913;-84
2022/09/11 05:53:19;;;;;;;;;;;17.40;99.90;;;;;;5072565;28;19909;-84
2022/09/11 05:55:46;;;;;;;;;;;17.40;99.90;;;;;;5070987;28;19921;-83
2022/09/11 05:58:11;;;;;;;;;;;17.40;99.90;;;;;;5071994;28;19912;-84
2022/09/11 06:00:37;;;;;;;;;;;17.40;99.90;;;;;;5072274;28;20003;-83
2022/09/11 06:03:03;;;;;;;;;;;17.40;99.90;;;;;;5073306;28;19930;-83
2022/09/11 06:05:29;;;;;;;;;;;17.40;99.90;;;;;;5071941;28;20050;-84
2022/09/11 06:07:54;;;;;;;;;;;17.40;99.90;;;;;;5071825;28;19912;-84
2022/09/11 06:10:20;;;;;;;;;;;17.40;99.90;;;;;;5072092;28;19908;-83
2022/09/11 06:12:45;;;;;;;;;;;17.40;99.90;;;;;;5073588;28;19916;-84
2022/09/11 06:15:11;;;;;;;;;;;17.50;99.90;;;;;;5073223;28;20363;-84
2022/09/11 06:17:36;;;;;;;;;;;17.40;99.90;;;;;;5072968;28;20291;-84
2022/09/11 06:20:02;;;;;;;;;;;17.40;99.90;;;;;;5072994;28;19959;-84
2022/09/11 06:22:32;;;;;;;;;;;17.40;99.90;;;;;;5073010;28;19908;-84
2022/09/11 06:24:57;;;;;;;;;;;17.30;99.90;;;;;;5071393;28;19908;-83
2022/09/11 06:27:23;;;;;;;;;;;17.30;99.90;;;;;;5070461;28;19958;-84
2022/09/11 06:29:49;;;;;;;;;;;17.20;99.90;;;;;;5071045;28;19944;-83
2022/09/11 06:32:15;;;;;;;;;;;17.30;99.90;;;;;;5071089;28;20390;-83
2022/09/11 06:34:40;;;;;;;;;;;17.40;99.90;;;;;;5072328;28;19908;-83
2022/09/11 06:37:06;;;;;;;;;;;17.40;99.90;;;;;;5071686;28;19999;-83
2022/09/11 06:39:33;;;;;;;;;;;17.50;99.90;;;;;;5071128;28;19912;-83
2022/09/11 06:41:58;;;;;;;;;;;17.50;99.90;;;;;;5072384;28;20291;-84
2022/09/11 06:44:25;;;;;;;;;;;17.50;99.90;;;;;;5070897;28;19915;-83
2022/09/11 06:46:51;;;;;;;;;;;17.50;99.90;;;;;;5071467;28;19954;-84
2022/09/11 06:49:16;;;;;;;;;;;17.60;99.90;;;;;;5070788;28;20003;-84
2022/09/11 06:51:41;;;;;;;;;;;17.70;99.90;;;;;;5070802;28;19923;-84
2022/09/11 06:54:07;;;;;;;;;;;17.70;99.90;;;;;;5070698;28;19999;-84
2022/09/11 06:56:32;;;;;;;;;;;17.70;99.90;;;;;;5070145;28;19913;-83
2022/09/11 06:58:58;;;;;;;;;;;17.60;99.90;;;;;;5070784;28;20334;-84
2022/09/11 07:01:24;;;;;;;;;;;17.60;99.90;;;;;;5070821;28;19908;-83
2022/09/11 07:03:50;;;;;;;;;;;17.70;99.90;;;;;;5070700;28;19931;-83
2022/09/11 07:06:17;;;;;;;;;;;17.70;99.90;;;;;;5070629;28;20299;-83
2022/09/11 07:08:42;;;;;;;;;;;17.80;99.90;;;;;;5075698;28;19909;-83
2022/09/11 07:11:10;;;;;;;;;;;17.80;99.90;;;;;;5075629;28;19920;-83
2022/09/11 07:13:36;;;;;;;;;;;17.80;99.90;;;;;;5074442;28;19928;-84
2022/09/11 07:16:03;;;;;;;;;;;17.90;99.90;;;;;;5073632;28;19912;-83
2022/09/11 07:18:33;;;;;;;;;;;17.90;99.90;;;;;;5075498;28;19908;-84
2022/09/11 07:20:59;;;;;;;;;;;18.00;99.90;;;;;;5074254;28;19909;-83
2022/09/11 07:23:24;;;;;;;;;;;18.00;99.90;;;;;;5074213;28;19920;-84
2022/09/11 07:25:49;;;;;;;;;;;18.00;99.90;;;;;;5073453;28;19962;-84
2022/09/11 07:28:15;;;;;;;;;;;18.10;99.90;;;;;;5074200;28;19916;-84
2022/09/11 07:30:40;;;;;;;;;;;18.10;99.90;;;;;;5075244;28;19908;-83
2022/09/11 07:33:06;;;;;;;;;;;18.10;99.90;;;;;;5074093;28;19959;-84
2022/09/11 07:35:34;;;;;;;;;;;18.20;99.90;;;;;;5075066;28;19909;-84
2022/09/11 07:38:00;;;;;;;;;;;18.20;99.90;;;;;;5075287;28;19955;-83
2022/09/11 07:40:26;;;;;;;;;;;18.10;99.90;;;;;;5073386;28;19917;-83
2022/09/11 07:42:52;;;;;;;;;;;18.10;99.90;;;;;;5075116;28;20418;-83
2022/09/11 07:45:17;;;;;;;;;;;18.10;99.90;;;;;;5073754;28;19908;-83
2022/09/11 07:47:43;;;;;;;;;;;18.10;99.90;;;;;;5074425;28;19909;-84
2022/09/11 07:50:08;;;;;;;;;;;18.10;99.90;;;;;;5074962;28;19909;-83
2022/09/11 07:52:35;;;;;;;;;;;18.00;99.90;;;;;;5073586;28;19917;-83
2022/09/11 07:55:01;;;;;;;;;;;18.10;99.90;;;;;;5074653;28;20395;-84
2022/09/11 07:57:28;;;;;;;;;;;18.00;99.90;;;;;;5073063;28;19909;-83
2022/09/11 07:59:53;;;;;;;;;;;18.00;99.90;;;;;;5074801;28;19908;-83
2022/09/11 08:02:19;;;;;;;;;;;18.00;99.90;;;;;;5073491;28;20666;-84
2022/09/11 08:04:44;;;;;;;;;;;18.00;99.90;;;;;;5074593;28;19920;-83
2022/09/11 08:07:10;;;;;;;;;;;18.00;99.90;;;;;;5072808;28;19916;-84
2022/09/11 08:09:36;;;;;;;;;;;18.00;99.90;;;;;;5074580;28;19936;-83
2022/09/11 08:12:01;;;;;;;;;;;18.00;99.90;;;;;;5074518;28;19912;-84
2022/09/11 08:14:27;;;;;;;;;;;18.10;99.90;;;;;;5073872;28;20376;-87
2022/09/11 08:16:53;;;;;;;;;;;18.10;99.90;;;;;;5056816;28;19970;-87
2022/09/11 08:19:20;;;;;;;;;;;18.20;99.90;;;;;;5049193;28;19917;-86
2022/09/11 08:21:46;;;;;;;;;;;18.30;99.90;;;;;;5046769;28;19917;-83
2022/09/11 08:24:12;;;;;;;;;;;18.40;99.90;;;;;;5035662;28;19979;-88
2022/09/11 08:26:38;;;;;;;;;;;18.40;99.90;;;;;;5061510;28;19963;-88
2022/09/11 08:29:04;;;;;;;;;;;18.40;99.90;;;;;;5032974;28;20329;-88
2022/09/11 08:31:29;;;;;;;;;;;18.40;99.90;;;;;;5048274;28;20376;-87
2022/09/11 08:33:55;;;;;;;;;;;18.40;99.90;;;;;;5053142;28;20299;-88
2022/09/11 08:36:21;;;;;;;;;;;18.30;99.90;;;;;;5049368;28;19920;-88
2022/09/11 08:38:47;;;;;;;;;;;18.40;99.90;;;;;;5056616;28;19978;-88
2022/09/11 08:47:23;;;;;;;;;;;18.50;99.90;;;;;;5099688;22;20455;-83
2022/09/11 08:50:00;;;;;;;;;;;18.60;99.90;;;;;;5072697;28;19909;-83
2022/09/11 08:52:26;;;;;;;;;;;18.70;99.90;;;;;;5054446;28;19927;-83
2022/09/11 08:54:55;;;;;;;;;;;18.80;99.90;;;;;;5052855;28;19908;-84
2022/09/11 08:57:29;;;;;;;;;;;18.90;99.90;;;;;;5052424;28;20347;-84
2022/09/11 08:59:55;;;;;;;;;;;19.00;99.90;;;;;;5052938;28;19972;-82
2022/09/11 09:02:37;;;;;;;;;;;19.10;99.90;;;;;;5052430;28;19959;-82
2022/09/11 09:05:07;;;;;;;;;;;19.10;99.90;;;;;;5053311;28;19916;-80
2022/09/11 09:07:40;;;;;;;;;;;19.10;99.90;;;;;;5052984;28;19908;-81
2022/09/11 09:10:15;;;;;;;;;;;19.10;99.90;;;;;;5059307;28;19909;-81
2022/09/11 09:13:07;;;;;;;;;;;19.10;99.90;;;;;;5073217;28;20379;-82
2022/09/11 09:15:40;;;;;;;;;;;19.10;99.90;;;;;;5077357;28;19908;-81
2022/09/11 09:18:15;;;;;;;;;;;19.10;99.90;;;;;;5078865;28;19909;-80
2022/09/11 09:20:44;;;;;;;;;;;19.10;99.90;;;;;;5078216;28;19908;-81
2022/09/11 09:23:17;;;;;;;;;;;19.20;99.90;;;;;;5073985;28;19920;-80
2022/09/11 09:25:43;;;;;;;;;;;19.20;99.90;;;;;;5067232;28;19978;-80
2022/09/11 09:28:24;;;;;;;;;;;19.30;99.90;;;;;;5060912;28;19908;-81
2022/09/11 09:30:52;;;;;;;;;;;19.30;99.90;;;;;;5061068;28;20434;-83
2022/09/11 09:33:25;;;;;;;;;;;19.40;99.90;;;;;;5073886;28;19955;-81
2022/09/11 09:35:53;;;;;;;;;;;19.50;99.90;;;;;;5065312;28;19909;-80
2022/09/11 09:38:25;;;;;;;;;;;19.60;99.90;;;;;;5056823;28;20435;-81
2022/09/11 09:40:51;;;;;;;;;;;19.60;99.90;;;;;;5056525;28;19908;-80
2022/09/11 09:43:38;;;;;;;;;;;19.60;99.90;;;;;;5055707;28;19987;-80
2022/09/11 09:46:31;;;;;;;;;;;19.70;99.90;;;;;;5064052;28;19916;-82
2022/09/11 09:48:56;;;;;;;;;;;19.70;99.90;;;;;;5066239;28;19940;-80
2022/09/11 09:51:22;;;;;;;;;;;19.70;99.90;;;;;;5067286;28;19920;-80
2022/09/11 09:53:51;;;;;;;;;;;19.70;99.90;;;;;;5075644;28;19916;-78
2022/09/11 09:56:18;;;;;;;;;;;19.80;99.90;;;;;;5075380;28;19908;-79
2022/09/11 09:58:56;;;;;;;;;;;19.90;99.90;;;;;;5076275;28;19995;-79
2022/09/11 10:01:42;;;;;;;;;;;19.90;99.90;;;;;;5075311;28;19909;-80
2022/09/11 10:04:14;;;;;;;;;;;19.80;99.90;;;;;;5075957;28;19991;-78
2022/09/11 10:06:40;;;;;;;;;;;19.80;99.90;;;;;;5072750;28;19939;-78
2022/09/11 10:09:16;;;;;;;;;;;19.90;99.90;;;;;;5071127;28;20037;-78
2022/09/11 10:11:42;;;;;;;;;;;20.10;99.90;;;;;;5071116;28;19912;-78
2022/09/11 10:14:14;;;;;;;;;;;20.30;99.90;;;;;;5069074;28;19908;-77
2022/09/11 10:16:39;;;;;;;;;;;20.50;99.90;;;;;;5067806;28;19913;-77
2022/09/11 10:19:23;;;;;;;;;;;20.60;99.90;;;;;;5052181;28;20383;-77
2022/09/11 10:21:50;;;;;;;;;;;20.80;99.90;;;;;;5052065;28;20347;-78
2022/09/11 10:24:22;;;;;;;;;;;21.00;99.90;;;;;;5051937;28;19940;-78
2022/09/11 10:26:50;;;;;;;;;;;21.10;99.90;;;;;;5051730;28;19916;-77
2022/09/11 10:29:18;;;;;;;;;;;21.30;99.90;;;;;;5051731;28;20288;-78
2022/09/11 10:31:48;;;;;;;;;;;21.30;99.90;;;;;;5053157;28;20344;-78
2022/09/11 10:34:18;;;;;;;;;;;21.30;99.90;;;;;;5051860;28;19908;-79
2022/09/11 10:36:51;;;;;;;;;;;21.30;99.90;;;;;;5051508;28;20268;-78
2022/09/11 10:39:18;;;;;;;;;;;21.30;99.90;;;;;;5051957;28;19909;-79
2022/09/11 10:41:47;;;;;;;;;;;21.40;99.90;;;;;;5054765;28;20455;-79
2022/09/11 10:44:14;;;;;;;;;;;21.50;99.90;;;;;;5056449;28;19913;-79
2022/09/11 10:46:44;;;;;;;;;;;21.70;99.90;;;;;;5058336;28;19968;-82
2022/09/11 10:49:22;;;;;;;;;;;21.70;99.90;;;;;;5066265;28;20155;-82
2022/09/11 10:51:59;;;;;;;;;;;21.80;99.90;;;;;;5078411;28;19960;-82
2022/09/11 10:54:30;;;;;;;;;;;21.80;99.90;;;;;;5065488;28;20272;-81
2022/09/11 10:56:59;;;;;;;;;;;21.70;99.90;;;;;;5057941;28;19908;-81
2022/09/11 10:59:47;;;;;;;;;;;21.80;99.90;;;;;;5057782;28;19931;-81
2022/09/11 11:02:18;;;;;;;;;;;22.00;99.90;;;;;;5020122;28;19920;-82
2022/09/11 11:04:44;;;;;;;;;;;22.20;99.90;;;;;;5057882;28;19916;-83
2022/09/11 11:07:22;;;;;;;;;;;22.40;99.90;;;;;;5057015;28;19909;-82
2022/09/11 11:10:01;;;;;;;;;;;22.50;99.90;;;;;;5057009;28;19908;-81
2022/09/11 11:12:46;;;;;;;;;;;22.50;99.90;;;;;;5056737;28;19971;-82
2022/09/11 11:15:30;;;;;;;;;;;22.70;99.90;;;;;;5056945;28;19916;-81
2022/09/11 11:18:14;;;;;;;;;;;22.80;99.90;;;;;;5056786;28;19909;-81
2022/09/11 11:20:43;;;;;;;;;;;23.00;99.90;;;;;;5057007;28;19909;-81
2022/09/11 11:23:17;;;;;;;;;;;23.20;99.90;;;;;;5057096;28;19912;-80
2022/09/11 11:25:43;;;;;;;;;;;23.50;99.90;;;;;;5056605;28;19909;-83
2022/09/11 11:28:20;;;;;;;;;;;23.70;99.90;;;;;;5056542;28;19931;-80
2022/09/11 11:30:55;;;;;;;;;;;23.70;99.90;;;;;;5055801;28;20015;-81
2022/09/11 11:33:23;;;;;;;;;;;23.70;99.90;;;;;;5055982;28;19962;-80
2022/09/11 11:35:52;;;;;;;;;;;23.80;99.90;;;;;;5055212;28;19920;-81
2022/09/11 11:38:18;;;;;;;;;;;23.80;99.90;;;;;;5055019;28;19909;-82
2022/09/11 11:40:48;;;;;;;;;;;24.00;99.90;;;;;;5056151;28;19940;-81
2022/09/11 11:43:18;;;;;;;;;;;24.10;99.90;;;;;;5055966;28;19913;-81
2022/09/11 11:45:45;;;;;;;;;;;23.90;99.90;;;;;;5055016;28;19909;-81
2022/09/11 11:48:31;;;;;;;;;;;23.80;99.90;;;;;;5055185;28;19909;-81
2022/09/11 11:51:00;;;;;;;;;;;23.70;99.90;;;;;;5054775;28;20376;-80
2022/09/11 11:53:34;;;;;;;;;;;23.40;99.90;;;;;;5054769;28;19976;-81
2022/09/11 11:56:18;;;;;;;;;;;23.40;99.90;;;;;;5054741;28;19909;-79
2022/09/11 11:58:46;;;;;;;;;;;23.40;99.90;;;;;;5055014;28;20012;-80
2022/09/11 12:01:17;;;;;;;;;;;23.40;99.90;;;;;;5054946;28;19909;-81
2022/09/11 12:03:51;;;;;;;;;;;23.50;99.90;;;;;;5054679;28;19920;-81
2022/09/11 12:06:17;;;;;;;;;;;23.50;99.90;;;;;;5054490;28;19998;-80
2022/09/11 12:08:46;;;;;;;;;;;23.50;99.90;;;;;;5054520;28;20538;-81
2022/09/11 12:11:14;;;;;;;;;;;23.50;99.90;;;;;;5068571;28;19920;-82
2022/09/11 12:13:45;;;;;;;;;;;23.60;99.90;;;;;;5074647;28;19920;-81
2022/09/11 12:16:17;;;;;;;;;;;23.70;99.90;;;;;;5073869;28;19954;-81
2022/09/11 12:19:05;;;;;;;;;;;23.80;99.90;;;;;;5071220;28;19970;-81
2022/09/11 12:21:30;;;;;;;;;;;24.00;99.90;;;;;;5073685;28;19932;-82
2022/09/11 12:23:56;;;;;;;;;;;24.10;99.90;;;;;;5074191;28;19909;-82
2022/09/11 12:26:22;;;;;;;;;;;24.20;99.90;;;;;;5069521;28;20007;-82
2022/09/11 12:28:48;;;;;;;;;;;24.30;99.90;;;;;;5069204;28;20296;-82
2022/09/11 12:31:15;;;;;;;;;;;24.40;99.90;;;;;;5073653;28;19912;-81
2022/09/11 12:33:40;;;;;;;;;;;24.50;99.90;;;;;;5073985;28;19916;-81
2022/09/11 12:36:08;;;;;;;;;;;24.40;99.90;;;;;;5073148;28;19908;-81
2022/09/11 12:38:39;;;;;;;;;;;24.30;99.90;;;;;;5070459;28;19974;-81
2022/09/11 12:41:32;;;;;;;;;;;24.20;99.90;;;;;;5065636;28;19920;-81
2022/09/11 12:43:59;;;;;;;;;;;24.30;99.90;;;;;;5052355;28;20323;-80
2022/09/11 12:46:26;;;;;;;;;;;24.30;99.90;;;;;;5053230;28;19916;-81
2022/09/11 12:48:59;;;;;;;;;;;24.40;99.90;;;;;;5053321;28;19963;-80
2022/09/11 12:51:31;;;;;;;;;;;24.40;99.90;;;;;;5052865;28;20419;-81
2022/09/11 12:54:15;;;;;;;;;;;24.40;99.90;;;;;;5053249;28;19915;-81
2022/09/11 12:56:45;;;;;;;;;;;24.60;99.90;;;;;;5051936;28;19948;-81
2022/09/11 12:59:20;;;;;;;;;;;24.60;99.90;;;;;;5052386;28;20070;-81
2022/09/11 13:01:45;;;;;;;;;;;24.80;99.90;;;;;;5052054;28;19909;-80
2022/09/11 13:04:11;;;;;;;;;;;24.90;99.90;;;;;;5051300;28;19992;-80
2022/09/11 13:06:36;;;;;;;;;;;25.10;99.90;;;;;;5051746;28;20329;-80
2022/09/11 13:09:03;;;;;;;;;;;25.50;99.90;;;;;;5052148;28;20261;-79
2022/09/11 13:11:42;;;;;;;;;;;26.10;99.90;;;;;;5051985;28;20287;-79
2022/09/11 13:14:26;;;;;;;;;;;26.70;99.90;;;;;;5055939;28;19909;-80
2022/09/11 13:16:52;;;;;;;;;;;27.80;99.90;;;;;;5055530;28;19940;-81
2022/09/11 13:19:19;;;;;;;;;;;28.30;99.90;;;;;;5056242;28;19909;-81
2022/09/11 13:21:48;;;;;;;;;;;27.80;99.90;;;;;;5063076;28;19908;-81
2022/09/11 13:24:29;;;;;;;;;;;27.20;99.90;;;;;;5075528;28;19909;-80
2022/09/11 13:26:56;;;;;;;;;;;26.80;99.90;;;;;;5060895;28;19909;-82
2022/09/11 13:29:23;;;;;;;;;;;26.50;99.90;;;;;;5055410;28;19909;-80
2022/09/11 13:31:49;;;;;;;;;;;26.30;99.90;;;;;;5054966;28;20277;-80
2022/09/11 13:34:16;;;;;;;;;;;26.10;99.90;;;;;;5055084;28;19909;-81
2022/09/11 13:36:41;;;;;;;;;;;26.10;99.90;;;;;;5054397;28;19916;-81
2022/09/11 13:39:07;;;;;;;;;;;26.20;99.90;;;;;;5054901;28;20372;-82
2022/09/11 13:41:38;;;;;;;;;;;26.00;99.90;;;;;;5054682;28;19909;-79
2022/09/11 13:44:08;;;;;;;;;;;25.80;99.90;;;;;;5052102;28;19938;-79
2022/09/11 13:46:34;;;;;;;;;;;25.60;99.90;;;;;;5051014;28;19916;-79
2022/09/11 13:49:09;;;;;;;;;;;25.40;99.90;;;;;;5051647;28;19909;-79
2022/09/11 13:51:38;;;;;;;;;;;25.20;99.90;;;;;;5057227;28;19921;-81
2022/09/11 13:54:20;;;;;;;;;;;25.10;99.90;;;;;;5071700;28;20368;-81
2022/09/11 13:57:05;;;;;;;;;;;25.10;99.90;;;;;;5068699;28;19913;-79
2022/09/11 13:59:41;;;;;;;;;;;25.10;99.90;;;;;;5056858;28;20000;-79
2022/09/11 14:02:26;;;;;;;;;;;25.20;99.90;;;;;;5071590;28;19908;-80
2022/09/11 14:04:55;;;;;;;;;;;25.30;99.90;;;;;;5037331;28;20010;-80
2022/09/11 14:07:21;;;;;;;;;;;25.40;99.90;;;;;;5058242;28;19909;-79
2022/09/11 14:09:49;;;;;;;;;;;25.60;99.90;;;;;;5069967;28;20383;-79
2022/09/11 14:12:15;;;;;;;;;;;25.80;99.90;;;;;;5071348;28;19912;-79
2022/09/11 14:14:45;;;;;;;;;;;25.90;99.90;;;;;;5052495;28;19909;-81
2022/09/11 14:17:12;;;;;;;;;;;25.80;99.90;;;;;;5050916;28;19995;-79
2022/09/11 14:19:41;;;;;;;;;;;25.80;99.90;;;;;;5051673;28;20018;-79
2022/09/11 14:22:21;;;;;;;;;;;26.10;99.90;;;;;;5051794;28;19909;-79
2022/09/11 14:24:53;;;;;;;;;;;26.80;99.90;;;;;;5055078;28;19983;-79
2022/09/11 14:27:35;;;;;;;;;;;27.80;99.90;;;;;;5070681;28;19965;-80
2022/09/11 14:30:00;;;;;;;;;;;28.90;99.90;;;;;;5071771;28;19916;-79
2022/09/11 14:32:31;;;;;;;;;;;30.90;99.90;;;;;;5074993;28;20363;-80